Time;durP1;ratioP1;P1;durP2;ratioP2;P2;SDS_P1;SDS_P2;PMS_P1;PMS_P2;Temp;Humidity;BMP_temperature;BMP_pressure;BME280_temperature;BME280_humidity;BME280_pressure;Samples;Min_cycle;Max_cycle;Signal;HPM_P1;HPM_P2
2021/09/28 04:51:12;;;;;;;11.70;3.47;;;;;;;;;;5703921;23;20108;-89
2021/09/28 04:53:39;;;;;;;11.63;3.13;;;;;;;;;;5023129;28;20041;-90
2021/09/28 04:56:07;;;;;;;12.30;3.42;;;;;;;;;;4996495;28;20042;-89
2021/09/28 04:58:34;;;;;;;13.98;3.92;;;;;;;;;;4994513;28;20136;-91
2021/09/28 05:01:06;;;;;;;13.20;3.60;;;;;;;;;;4993296;28;20047;-90
2021/09/28 05:03:33;;;;;;;14.70;3.40;;;;;;;;;;4993192;28;20043;-89
2021/09/28 05:06:00;;;;;;;10.73;3.05;;;;;;;;;;4976298;28;20093;-89
2021/09/28 05:12:02;;;;;;;14.45;3.67;;;;;;;;;;4976656;28;20050;-88
2021/09/28 05:14:32;;;;;;;11.10;3.10;;;;;;;;;;4976511;28;20514;-88
2021/09/28 05:16:59;;;;;;;11.35;3.13;;;;;;;;;;4976092;28;20129;-88
2021/09/28 05:19:30;;;;;;;14.15;3.45;;;;;;;;;;4979459;28;20069;-86
2021/09/28 05:21:59;;;;;;;11.57;3.55;;;;;;;;;;4995374;28;20073;-87
2021/09/28 05:24:32;;;;;;;14.02;3.30;;;;;;;;;;5003524;28;20065;-88
2021/09/28 05:27:15;;;;;;;9.27;3.70;;;;;;;;;;4989027;28;20058;-87
2021/09/28 05:29:55;;;;;;;13.50;3.50;;;;;;;;;;4971372;28;20134;-88
2021/09/28 05:32:25;;;;;;;13.57;3.72;;;;;;;;;;4973587;28;20054;-88
2021/09/28 05:34:56;;;;;;;12.05;3.90;;;;;;;;;;4965804;28;20039;-88
2021/09/28 05:37:25;;;;;;;13.70;4.00;;;;;;;;;;4970798;28;20042;-88
2021/09/28 05:39:53;;;;;;;10.65;3.40;;;;;;;;;;5003521;28;20098;-88
2021/09/28 05:42:21;;;;;;;9.18;3.40;;;;;;;;;;5012813;28;20042;-88
2021/09/28 05:44:56;;;;;;;9.75;3.05;;;;;;;;;;4994061;28;20027;-87
2021/09/28 05:47:45;;;;;;;12.05;3.10;;;;;;;;;;4994371;28;20051;-87
2021/09/28 05:50:27;;;;;;;10.20;3.03;;;;;;;;;;4998653;28;20149;-87
2021/09/28 05:55:47;;;;;;;12.48;2.95;;;;;;;;;;4970206;28;20153;-88
2021/09/28 06:05:29;;;;;;;6.07;2.30;;;;;;;;;;4977718;28;20038;-88
2021/09/28 06:07:59;;;;;;;;;;;;;;;;;;4977522;28;20077;-87
2021/09/28 06:10:32;;;;;;;11.43;2.70;;;;;;;;;;4993645;28;19922;-88
2021/09/28 06:13:34;;;;;;;7.28;2.40;;;;;;;;;;4974632;28;20090;-90
2021/09/28 06:22:47;;;;;;;8.30;2.25;;;;;;;;;;4939135;28;20043;-89
2021/09/28 06:25:37;;;;;;;7.57;2.63;;;;;;;;;;4956873;28;20062;-89
2021/09/28 06:28:18;;;;;;;;;;;;;;;;;;;;;
2021/09/28 06:31:05;;;;;;;11.40;2.60;;;;;;;;;;4963611;28;20479;-89
2021/09/28 06:33:48;;;;;;;11.68;2.30;;;;;;;;;;4967216;28;20133;-87
2021/09/28 06:40:04;;;;;;;;;;;;;;;;;;;;;
2021/09/28 06:42:48;;;;;;;10.05;2.95;;;;;;;;;;4962691;28;20094;-87
2021/09/28 06:45:30;;;;;;;6.32;2.35;;;;;;;;;;4973189;28;20500;-88
2021/09/28 06:48:35;;;;;;;8.68;2.42;;;;;;;;;;4969554;28;20039;-88
2021/09/28 06:51:03;;;;;;;6.97;2.65;;;;;;;;;;4967753;28;20062;-88
2021/09/28 06:57:06;;;;;;;;;;;;;;;;;;;;;
2021/09/28 07:03:30;;;;;;;;;;;;;;;;;;;;;
2021/09/28 07:06:29;;;;;;;;;;;;;;;;;;;;;
2021/09/28 07:09:49;;;;;;;8.60;2.67;;;;;;;;;;4894395;29;20051;-89
2021/09/28 07:15:54;;;;;;;11.10;2.92;;;;;;;;;;4830963;29;20068;-88
2021/09/28 07:24:31;;;;;;;7.88;2.83;;;;;;;;;;4966569;28;20054;-88
2021/09/28 07:27:39;;;;;;;11.63;3.75;;;;;;;;;;4971196;28;20042;-88
2021/09/28 07:30:38;;;;;;;8.43;3.10;;;;;;;;;;4948913;28;20058;-89
2021/09/28 07:33:57;;;;;;;16.35;4.03;;;;;;;;;;4970599;28;20046;-88
2021/09/28 07:37:07;;;;;;;6.40;2.78;;;;;;;;;;4989193;28;20046;-89
2021/09/28 07:43:40;;;;;;;;;;;;;;;;;;;;;
2021/09/28 07:49:46;;;;;;;7.00;2.47;;;;;;;;;;4975567;28;20043;-89
2021/09/28 08:05:46;;;;;;;7.68;2.03;;;;;;;;;;4936984;28;20039;-89
2021/09/28 08:08:14;;;;;;;12.20;2.60;;;;;;;;;;4985648;28;20129;-88
2021/09/28 08:10:41;;;;;;;9.20;2.38;;;;;;;;;;4974826;28;20051;-89
2021/09/28 08:13:13;;;;;;;5.70;1.80;;;;;;;;;;4975666;28;20049;-89
2021/09/28 08:15:47;;;;;;;7.05;2.22;;;;;;;;;;4976960;28;20035;-89
2021/09/28 08:18:24;;;;;;;6.55;1.70;;;;;;;;;;4978982;28;20039;-89
2021/09/28 08:20:57;;;;;;;5.50;1.80;;;;;;;;;;4959872;28;20105;-89
2021/09/28 08:23:31;;;;;;;9.18;1.98;;;;;;;;;;4954860;29;20055;-89
2021/09/28 08:29:08;;;;;;;7.90;1.83;;;;;;;;;;4995572;28;20043;-89
2021/09/28 08:29:31;;;;;;;7.55;1.60;;;;;;;;;;4995841;28;20046;-90
2021/09/28 08:35:25;;;;;;;7.68;2.35;;;;;;;;;;4989171;28;20066;-89
2021/09/28 08:37:57;;;;;;;7.00;2.65;;;;;;;;;;4973842;28;20051;-90
2021/09/28 08:40:24;;;;;;;5.72;2.10;;;;;;;;;;4977538;28;20536;-89
2021/09/28 08:42:55;;;;;;;7.75;2.03;;;;;;;;;;4979399;28;20051;-88
2021/09/28 08:45:28;;;;;;;10.68;1.90;;;;;;;;;;4959256;28;20042;-89
2021/09/28 08:48:32;;;;;;;9.02;2.20;;;;;;;;;;4975489;28;20050;-89
2021/09/28 08:51:10;;;;;;;9.63;1.88;;;;;;;;;;4974963;28;20049;-89
2021/09/28 08:53:57;;;;;;;6.72;2.28;;;;;;;;;;4975658;28;20058;-89
2021/09/28 08:56:41;;;;;;;9.07;2.40;;;;;;;;;;4956328;28;20123;-89
2021/09/28 08:59:18;;;;;;;6.43;1.50;;;;;;;;;;4966375;28;20074;-90
2021/09/28 09:02:06;;;;;;;;;;;;;;;;;;;;;
2021/09/28 09:04:47;;;;;;;9.57;2.20;;;;;;;;;;4958259;28;20177;-89
2021/09/28 09:07:29;;;;;;;9.77;2.08;;;;;;;;;;4975101;28;20042;-89
2021/09/28 09:09:59;;;;;;;6.78;1.75;;;;;;;;;;4957440;28;20042;-88
2021/09/28 09:12:31;;;;;;;7.18;2.28;;;;;;;;;;4958560;28;20039;-90
2021/09/28 09:15:18;;;;;;;8.85;2.08;;;;;;;;;;4976425;28;20137;-89
2021/09/28 09:17:46;;;;;;;11.10;2.38;;;;;;;;;;4954372;28;20050;-89
2021/09/28 09:20:38;;;;;;;15.43;2.97;;;;;;;;;;4957164;28;20101;-88
2021/09/28 09:23:16;;;;;;;8.88;2.53;;;;;;;;;;4938993;28;20134;-89
2021/09/28 09:25:46;;;;;;;12.43;2.88;;;;;;;;;;4961652;28;20083;-89
2021/09/28 09:28:34;;;;;;;9.35;2.08;;;;;;;;;;4980035;28;20054;-96
2021/09/28 09:31:39;;;;;;;6.70;2.35;;;;;;;;;;4973776;28;20039;-86
2021/09/28 09:34:21;;;;;;;;;;;;;;;;;;;;;
2021/09/28 09:46:50;;;;;;;7.53;1.90;;;;;;;;;;5000915;23;20080;-87
2021/09/28 09:49:21;;;;;;;8.90;2.88;;;;;;;;;;4991003;28;20043;-85
2021/09/28 09:52:12;;;;;;;8.70;2.13;;;;;;;;;;5008588;28;20469;-85
2021/09/28 09:54:42;;;;;;;9.60;2.35;;;;;;;;;;4992554;28;20057;-86
2021/09/28 09:57:12;;;;;;;9.85;2.35;;;;;;;;;;5003539;28;20049;-86
2021/09/28 09:59:47;;;;;;;9.40;2.35;;;;;;;;;;4993134;28;20738;-85
2021/09/28 10:02:25;;;;;;;9.07;2.70;;;;;;;;;;5523775;23;20132;-85
2021/09/28 10:04:52;;;;;;;9.68;2.17;;;;;;;;;;4974393;28;20105;-84
2021/09/28 10:10:12;;;;;;;9.98;2.30;;;;;;;;;;4990825;28;20084;-86
2021/09/28 10:12:39;;;;;;;12.85;2.28;;;;;;;;;;4967950;28;20531;-85
2021/09/28 10:15:19;;;;;;;7.80;2.17;;;;;;;;;;4945474;28;20616;-85
2021/09/28 10:17:48;;;;;;;9.50;2.05;;;;;;;;;;4970264;28;20049;-87
2021/09/28 10:20:31;;;;;;;7.15;1.98;;;;;;;;;;4949469;28;20127;-85
2021/09/28 10:23:00;;;;;;;15.13;2.38;;;;;;;;;;4963676;28;20046;-84
2021/09/28 10:25:45;;;;;;;8.10;2.05;;;;;;;;;;4965505;28;20046;-85
2021/09/28 10:28:40;;;;;;;9.32;2.20;;;;;;;;;;4961322;28;20038;-85
2021/09/28 10:31:12;;;;;;;13.02;2.25;;;;;;;;;;4947967;28;20062;-84
2021/09/28 10:33:52;;;;;;;10.73;2.40;;;;;;;;;;4967785;28;20053;-84
2021/09/28 10:36:23;;;;;;;14.68;2.95;;;;;;;;;;4969195;28;20137;-85
2021/09/28 10:45:04;;;;;;;14.15;2.53;;;;;;;;;;5005328;23;20532;-87
2021/09/28 10:47:54;;;;;;;8.10;2.53;;;;;;;;;;4974191;28;20043;-84
2021/09/28 10:50:38;;;;;;;13.35;2.45;;;;;;;;;;4969107;28;20121;-89
2021/09/28 10:53:26;;;;;;;13.68;2.30;;;;;;;;;;4955348;28;20436;-86
2021/09/28 10:56:00;;;;;;;6.78;2.15;;;;;;;;;;4951931;28;20047;-89
2021/09/28 10:58:28;;;;;;;10.90;2.85;;;;;;;;;;4965580;28;20520;-87
2021/09/28 11:01:06;;;;;;;12.82;2.38;;;;;;;;;;4942449;28;20050;-86
2021/09/28 11:04:07;;;;;;;10.70;2.38;;;;;;;;;;4968564;28;20071;-88
2021/09/28 11:07:01;;;;;;;10.43;2.15;;;;;;;;;;4960861;28;20055;-86
2021/09/28 11:09:50;;;;;;;8.63;2.08;;;;;;;;;;4946833;28;20050;-86
2021/09/28 11:12:19;;;;;;;9.13;2.53;;;;;;;;;;4988739;28;20037;-87
2021/09/28 11:14:47;;;;;;;9.07;2.30;;;;;;;;;;4971711;28;20070;-86
2021/09/28 11:17:19;;;;;;;8.15;2.38;;;;;;;;;;4996793;28;20077;-87
2021/09/28 11:19:47;;;;;;;11.80;2.60;;;;;;;;;;4981128;28;20034;-85
2021/09/28 11:22:23;;;;;;;6.68;2.08;;;;;;;;;;4986044;28;20027;-87
2021/09/28 11:24:53;;;;;;;10.88;2.88;;;;;;;;;;4988297;28;20436;-87
2021/09/28 11:27:21;;;;;;;13.52;2.58;;;;;;;;;;4963153;28;20049;-85
2021/09/28 11:29:48;;;;;;;11.95;2.13;;;;;;;;;;4970817;28;20050;-87
2021/09/28 11:32:17;;;;;;;9.50;2.13;;;;;;;;;;4953305;28;20042;-87
2021/09/28 11:34:45;;;;;;;12.02;3.08;;;;;;;;;;4969505;28;20054;-87
2021/09/28 11:37:12;;;;;;;11.07;2.28;;;;;;;;;;4952830;28;20716;-86
2021/09/28 11:39:45;;;;;;;11.98;2.60;;;;;;;;;;4968930;28;20564;-86
2021/09/28 11:42:14;;;;;;;10.25;2.63;;;;;;;;;;4964083;28;20090;-87
2021/09/28 11:44:43;;;;;;;8.35;1.98;;;;;;;;;;4965916;28;20133;-86
2021/09/28 11:47:19;;;;;;;16.35;2.88;;;;;;;;;;4953762;28;20053;-87
2021/09/28 11:49:52;;;;;;;8.80;1.80;;;;;;;;;;4977492;28;20053;-87
2021/09/28 11:52:20;;;;;;;12.10;2.63;;;;;;;;;;4968756;28;20050;-86
2021/09/28 11:54:49;;;;;;;14.40;2.20;;;;;;;;;;4958568;28;20046;-86
2021/09/28 11:57:18;;;;;;;13.57;2.05;;;;;;;;;;4970450;28;20047;-85
2021/09/28 11:59:46;;;;;;;11.77;2.08;;;;;;;;;;4952455;28;20097;-86
2021/09/28 12:05:53;;;;;;;6.50;2.15;;;;;;;;;;4951742;28;20061;-84
2021/09/28 12:08:22;;;;;;;7.28;1.63;;;;;;;;;;4943594;28;20035;-86
2021/09/28 12:10:50;;;;;;;12.95;2.53;;;;;;;;;;4965363;28;20508;-85
2021/09/28 12:13:27;;;;;;;12.57;2.17;;;;;;;;;;4966239;28;20035;-85
2021/09/28 12:16:13;;;;;;;7.22;2.00;;;;;;;;;;4954588;28;20046;-85
2021/09/28 12:18:41;;;;;;;10.02;2.58;;;;;;;;;;4944434;28;20043;-86
2021/09/28 12:21:26;;;;;;;11.25;2.03;;;;;;;;;;4954078;28;20031;-85
2021/09/28 12:24:14;;;;;;;8.95;2.13;;;;;;;;;;4970696;28;20058;-84
2021/09/28 12:26:41;;;;;;;;;;;;;;;;;;4964538;28;20050;-86
2021/09/28 12:29:16;;;;;;;9.60;3.08;;;;;;;;;;4967487;28;19922;-85
2021/09/28 12:31:43;;;;;;;7.65;2.42;;;;;;;;;;4960274;28;20098;-86
2021/09/28 12:34:11;;;;;;;9.55;2.70;;;;;;;;;;4948391;28;20050;-86
2021/09/28 12:36:39;;;;;;;7.03;2.15;;;;;;;;;;4966710;28;20043;-85
2021/09/28 12:39:25;;;;;;;10.40;2.22;;;;;;;;;;4969455;28;20043;-85
2021/09/28 12:42:07;;;;;;;10.95;2.53;;;;;;;;;;4968416;28;20101;-83
2021/09/28 12:44:36;;;;;;;7.90;2.70;;;;;;;;;;4964604;28;20070;-85
2021/09/28 12:47:22;;;;;;;14.23;2.30;;;;;;;;;;4956407;28;20492;-83
2021/09/28 12:49:50;;;;;;;9.15;2.45;;;;;;;;;;4967254;28;20046;-85
2021/09/28 12:52:19;;;;;;;6.03;2.15;;;;;;;;;;4952323;28;20046;-86
2021/09/28 12:54:46;;;;;;;7.28;1.98;;;;;;;;;;4969646;28;20496;-88
2021/09/28 12:57:14;;;;;;;9.15;2.35;;;;;;;;;;4967663;28;20042;-89
2021/09/28 12:59:44;;;;;;;7.63;1.67;;;;;;;;;;4969199;28;20042;-90
2021/09/28 13:02:12;;;;;;;9.15;2.08;;;;;;;;;;4970027;28;20047;-89
2021/09/28 13:04:39;;;;;;;7.00;2.00;;;;;;;;;;4956408;28;20034;-89
2021/09/28 13:07:09;;;;;;;5.68;2.08;;;;;;;;;;4970556;28;20043;-90
2021/09/28 13:09:36;;;;;;;7.13;1.83;;;;;;;;;;4969086;28;20050;-87
2021/09/28 13:12:04;;;;;;;11.20;1.80;;;;;;;;;;4981143;28;20069;-88
2021/09/28 13:14:32;;;;;;;7.38;2.20;;;;;;;;;;4969512;28;20047;-87
2021/09/28 13:17:01;;;;;;;7.60;1.50;;;;;;;;;;4957230;28;20039;-86
2021/09/28 13:19:28;;;;;;;5.78;1.60;;;;;;;;;;4981873;28;20074;-87
2021/09/28 13:21:56;;;;;;;7.30;2.30;;;;;;;;;;4958334;28;20053;-86
2021/09/28 13:24:24;;;;;;;10.00;2.38;;;;;;;;;;4975304;28;20114;-87
2021/09/28 13:26:51;;;;;;;7.30;1.83;;;;;;;;;;4989313;23;20050;-89
2021/09/28 13:29:19;;;;;;;10.52;1.85;;;;;;;;;;5018814;28;20104;-87
2021/09/28 13:31:46;;;;;;;12.60;2.00;;;;;;;;;;4994665;28;20046;-86
2021/09/28 13:34:15;;;;;;;11.00;2.60;;;;;;;;;;4997354;28;20140;-85
2021/09/28 13:36:43;;;;;;;9.00;2.35;;;;;;;;;;5014966;28;20042;-86
2021/09/28 13:39:11;;;;;;;5.75;1.42;;;;;;;;;;4995809;28;20038;-87
2021/09/28 13:41:38;;;;;;;6.65;1.65;;;;;;;;;;5010314;28;20045;-88
2021/09/28 13:44:06;;;;;;;9.20;2.13;;;;;;;;;;4986560;28;20049;-89
2021/09/28 13:46:33;;;;;;;10.95;1.92;;;;;;;;;;5003810;28;20042;-86
2021/09/28 13:49:01;;;;;;;6.45;1.70;;;;;;;;;;5008078;28;20134;-87
2021/09/28 13:51:30;;;;;;;9.00;2.42;;;;;;;;;;4985263;28;20045;-87
2021/09/28 13:53:57;;;;;;;8.98;1.75;;;;;;;;;;4988935;28;20046;-87
2021/09/28 13:56:25;;;;;;;6.80;1.63;;;;;;;;;;5020832;28;20121;-88
2021/09/28 13:58:52;;;;;;;8.77;1.95;;;;;;;;;;5031055;28;20053;-89
2021/09/28 14:01:20;;;;;;;15.02;1.85;;;;;;;;;;5031205;28;20065;-87
2021/09/28 14:03:47;;;;;;;6.18;1.38;;;;;;;;;;5020215;28;20026;-90
2021/09/28 14:06:18;;;;;;;7.97;2.22;;;;;;;;;;5017490;28;20038;-88
2021/09/28 14:08:46;;;;;;;12.43;1.88;;;;;;;;;;5013657;28;20046;-89
2021/09/28 14:11:14;;;;;;;4.97;1.60;;;;;;;;;;5017668;28;20042;-89
2021/09/28 14:13:42;;;;;;;3.83;1.30;;;;;;;;;;4993837;28;20038;-88
2021/09/28 14:16:10;;;;;;;5.57;1.40;;;;;;;;;;5023296;28;20037;-89
2021/09/28 14:18:38;;;;;;;7.25;1.40;;;;;;;;;;5025548;28;20044;-88
2021/09/28 14:21:06;;;;;;;4.88;1.50;;;;;;;;;;5009920;28;20061;-90
2021/09/28 14:23:34;;;;;;;5.18;1.67;;;;;;;;;;5011405;28;20142;-88
2021/09/28 14:26:03;;;;;;;7.55;1.38;;;;;;;;;;4989741;28;20045;-90
2021/09/28 14:28:31;;;;;;;5.57;1.63;;;;;;;;;;4988019;28;20046;-90
2021/09/28 14:30:59;;;;;;;4.75;1.42;;;;;;;;;;4990029;28;20050;-89
2021/09/28 14:33:27;;;;;;;7.80;1.55;;;;;;;;;;4998928;28;20064;-89
2021/09/28 14:35:54;;;;;;;5.13;1.52;;;;;;;;;;4991582;28;20049;-88
2021/09/28 14:38:22;;;;;;;8.30;1.60;;;;;;;;;;4990799;28;20038;-89
2021/09/28 14:40:50;;;;;;;5.18;1.45;;;;;;;;;;4989367;28;20047;-90
2021/09/28 14:43:44;;;;;;;11.65;1.73;;;;;;;;;;4989414;28;20043;-92
2021/09/28 16:15:12;;;;;;;4.85;1.55;;;;;;;;;;4930457;29;20599;-91
2021/09/28 16:58:14;;;;;;;6.90;2.00;;;;;;;;;;5499683;23;20112;-86
2021/09/28 17:09:38;;;;;;;8.25;2.20;;;;;;;;;;4980095;28;20538;-85
2021/09/28 17:14:51;;;;;;;7.93;1.95;;;;;;;;;;4987586;28;20050;-84
2021/09/28 17:17:19;;;;;;;6.45;1.92;;;;;;;;;;4972888;28;20516;-86
2021/09/28 17:19:48;;;;;;;11.70;2.33;;;;;;;;;;4968253;28;20058;-87
2021/09/28 17:22:19;;;;;;;10.50;2.38;;;;;;;;;;4987886;28;20046;-87
2021/09/28 17:24:49;;;;;;;6.65;1.85;;;;;;;;;;4968727;28;20047;-86
2021/09/28 17:27:23;;;;;;;9.60;2.15;;;;;;;;;;4971167;28;20066;-86
2021/09/28 17:30:15;;;;;;;10.35;2.67;;;;;;;;;;4988264;28;20050;-86
2021/09/28 17:32:53;;;;;;;5.40;2.58;;;;;;;;;;4986399;28;20423;-86
2021/09/28 17:35:21;;;;;;;10.82;2.40;;;;;;;;;;4988781;28;20141;-86
2021/09/28 17:38:09;;;;;;;7.70;2.08;;;;;;;;;;4990696;28;20039;-87
2021/09/28 17:40:45;;;;;;;6.43;2.22;;;;;;;;;;4975366;28;20046;-88
2021/09/28 17:43:17;;;;;;;7.93;2.15;;;;;;;;;;4974064;28;20059;-86
2021/09/28 17:45:57;;;;;;;9.65;2.45;;;;;;;;;;4992555;28;20099;-86
2021/09/28 17:48:30;;;;;;;11.23;3.50;;;;;;;;;;4992383;28;20039;-87
2021/09/28 17:50:59;;;;;;;7.72;3.70;;;;;;;;;;4978905;28;20057;-86
2021/09/28 17:53:39;;;;;;;12.27;4.07;;;;;;;;;;4990920;28;20965;-85
2021/09/28 17:56:19;;;;;;;9.95;4.70;;;;;;;;;;4980523;28;20029;-87
2021/09/28 17:59:06;;;;;;;10.63;4.40;;;;;;;;;;5005199;28;20165;-92
2021/09/28 18:01:43;;;;;;;9.02;4.18;;;;;;;;;;5219095;23;20026;-86
2021/09/28 18:04:36;;;;;;;10.30;3.92;;;;;;;;;;5033177;23;20049;-86
2021/09/28 18:07:12;;;;;;;12.85;6.07;;;;;;;;;;4995979;28;20040;-86
2021/09/28 18:09:45;;;;;;;8.95;3.80;;;;;;;;;;4980840;28;20093;-85
2021/09/28 18:12:15;;;;;;;17.52;6.43;;;;;;;;;;4969603;28;20129;-86
2021/09/28 18:14:50;;;;;;;16.77;7.55;;;;;;;;;;4971239;28;20046;-87
2021/09/28 18:17:38;;;;;;;;;;;;;;;;;;;;;
2021/09/28 18:23:30;;;;;;;;;;;;;;;;;;;;;
2021/09/28 18:32:52;;;;;;;12.70;6.07;;;;;;;;;;4975944;28;20043;-88
2021/09/28 18:35:19;;;;;;;8.45;4.22;;;;;;;;;;4991822;28;20108;-86
2021/09/28 18:37:49;;;;;;;6.18;3.25;;;;;;;;;;4976933;28;20038;-86
2021/09/28 18:40:23;;;;;;;10.35;3.50;;;;;;;;;;4989426;28;20130;-86
2021/09/28 18:42:53;;;;;;;7.45;2.60;;;;;;;;;;4985373;28;20081;-86
2021/09/28 18:45:22;;;;;;;9.43;3.65;;;;;;;;;;4987396;28;20057;-85
2021/09/28 18:47:52;;;;;;;11.93;2.75;;;;;;;;;;4988175;28;20128;-86
2021/09/28 18:50:26;;;;;;;10.32;2.50;;;;;;;;;;4990135;28;20034;-86
2021/09/28 18:52:55;;;;;;;8.35;2.63;;;;;;;;;;4996147;28;20019;-87
2021/09/28 18:55:25;;;;;;;7.55;2.75;;;;;;;;;;5000275;28;20034;-87
2021/09/28 18:57:55;;;;;;;7.45;2.83;;;;;;;;;;5000014;28;20049;-87
2021/09/28 19:00:28;;;;;;;11.90;2.95;;;;;;;;;;4997829;28;20139;-87
2021/09/28 19:03:00;;;;;;;6.72;2.63;;;;;;;;;;5001572;28;20057;-87
2021/09/28 19:05:39;;;;;;;6.38;2.30;;;;;;;;;;4987434;28;20089;-87
2021/09/28 19:08:10;;;;;;;9.88;2.40;;;;;;;;;;4977088;28;20142;-87
2021/09/28 19:10:41;;;;;;;5.40;1.80;;;;;;;;;;4967514;28;20051;-87
2021/09/28 19:13:09;;;;;;;7.25;2.17;;;;;;;;;;4978677;28;20452;-87
2021/09/28 19:15:37;;;;;;;6.18;2.30;;;;;;;;;;4957341;28;20154;-88
2021/09/28 19:18:06;;;;;;;8.93;2.25;;;;;;;;;;4958517;28;20043;-85
2021/09/28 19:20:39;;;;;;;8.95;2.33;;;;;;;;;;4966756;28;20039;-87
2021/09/28 19:23:07;;;;;;;8.10;2.25;;;;;;;;;;4966627;28;20042;-87
2021/09/28 19:25:36;;;;;;;7.82;2.03;;;;;;;;;;4961168;28;20471;-86
2021/09/28 19:28:04;;;;;;;4.82;2.33;;;;;;;;;;4954140;28;20416;-85
2021/09/28 19:30:34;;;;;;;6.78;2.20;;;;;;;;;;4968708;28;20078;-86
2021/09/28 19:33:01;;;;;;;9.52;3.25;;;;;;;;;;4968589;28;20046;-86
2021/09/28 19:35:32;;;;;;;8.23;2.40;;;;;;;;;;4971124;28;20077;-86
2021/09/28 19:38:04;;;;;;;6.90;2.08;;;;;;;;;;4970024;28;20046;-86
2021/09/28 19:40:34;;;;;;;6.93;2.28;;;;;;;;;;4940175;29;20508;-87
2021/09/28 19:43:03;;;;;;;6.93;2.30;;;;;;;;;;4970664;28;20047;-86
